< < Back
Terminal Aerodrome Forecast


Current Version              Previous Versions:   1  2  3  4  5  6  7  8  9  

Terminal Aerodrome Forecast

279
FTUS44 KMRX 231725
TAFCHA
TAF
KCHA 231725Z 2318/2418 VRB05KT P6SM VCTS SCT050CB BKN200
     FM240100 00000KT P6SM FEW070 SCT150
     FM241500 VRB04KT P6SM SCT045 BKN250=

Latest METAR

498
SAUS80 KWBC 240100
MTRCHA
METAR KCHA 240053Z 16004KT 10SM FEW040 SCT110 BKN160 BKN250 28/21 A3001
RMK AO2 SLP154 T02830206 $


USA.gov is the U.S. government's official web portal to all federal, state and local government web resources and services.